sensor_id;sensor_type;location;lat;lon;timestamp;P1;durP1;ratioP1;P2;durP2;ratioP2
46322;SDS011;32044;52.386;13.278;2023-04-05T00:00:50;10.48;;;5.95;;
46322;SDS011;32044;52.386;13.278;2023-04-05T00:03:19;9.38;;;5.40;;
46322;SDS011;32044;52.386;13.278;2023-04-05T00:05:47;8.43;;;5.90;;
46322;SDS011;32044;52.386;13.278;2023-04-05T00:08:15;10.80;;;6.10;;
46322;SDS011;32044;52.386;13.278;2023-04-05T00:10:50;9.75;;;6.38;;
46322;SDS011;32044;52.386;13.278;2023-04-05T00:13:18;11.18;;;6.57;;
46322;SDS011;32044;52.386;13.278;2023-04-05T00:15:46;13.38;;;6.78;;
46322;SDS011;32044;52.386;13.278;2023-04-05T00:18:14;9.45;;;6.10;;
46322;SDS011;32044;52.386;13.278;2023-04-05T00:20:49;15.07;;;6.30;;
46322;SDS011;32044;52.386;13.278;2023-04-05T00:23:17;12.25;;;6.32;;
46322;SDS011;32044;52.386;13.278;2023-04-05T00:25:46;14.55;;;6.78;;
46322;SDS011;32044;52.386;13.278;2023-04-05T00:28:15;14.52;;;6.13;;
46322;SDS011;32044;52.386;13.278;2023-04-05T00:30:42;13.18;;;6.15;;
46322;SDS011;32044;52.386;13.278;2023-04-05T00:33:10;12.25;;;5.82;;
46322;SDS011;32044;52.386;13.278;2023-04-05T00:35:38;11.43;;;5.60;;
46322;SDS011;32044;52.386;13.278;2023-04-05T00:38:06;11.55;;;5.80;;
46322;SDS011;32044;52.386;13.278;2023-04-05T00:40:33;9.30;;;5.93;;
46322;SDS011;32044;52.386;13.278;2023-04-05T00:43:02;7.07;;;4.75;;
46322;SDS011;32044;52.386;13.278;2023-04-05T00:45:31;8.23;;;5.53;;
46322;SDS011;32044;52.386;13.278;2023-04-05T00:47:58;9.88;;;6.03;;
46322;SDS011;32044;52.386;13.278;2023-04-05T00:50:26;8.52;;;5.60;;
46322;SDS011;32044;52.386;13.278;2023-04-05T00:52:56;9.50;;;5.75;;
46322;SDS011;32044;52.386;13.278;2023-04-05T00:55:24;9.05;;;5.85;;
46322;SDS011;32044;52.386;13.278;2023-04-05T00:57:52;6.93;;;4.63;;
46322;SDS011;32044;52.386;13.278;2023-04-05T01:00:21;9.45;;;5.55;;
46322;SDS011;32044;52.386;13.278;2023-04-05T01:02:51;7.72;;;5.38;;
46322;SDS011;32044;52.386;13.278;2023-04-05T01:05:24;7.88;;;5.38;;
46322;SDS011;32044;52.386;13.278;2023-04-05T01:08:02;10.40;;;5.43;;
46322;SDS011;32044;52.386;13.278;2023-04-05T01:10:34;10.02;;;6.32;;
46322;SDS011;32044;52.386;13.278;2023-04-05T01:13:04;8.43;;;5.35;;
46322;SDS011;32044;52.386;13.278;2023-04-05T01:15:32;11.77;;;6.30;;
46322;SDS011;32044;52.386;13.278;2023-04-05T01:18:01;9.77;;;6.18;;
46322;SDS011;32044;52.386;13.278;2023-04-05T01:20:29;11.15;;;6.22;;
46322;SDS011;32044;52.386;13.278;2023-04-05T01:23:11;12.73;;;6.38;;
46322;SDS011;32044;52.386;13.278;2023-04-05T01:25:51;9.23;;;5.30;;
46322;SDS011;32044;52.386;13.278;2023-04-05T01:28:39;8.73;;;5.80;;
46322;SDS011;32044;52.386;13.278;2023-04-05T01:31:22;12.35;;;6.25;;
46322;SDS011;32044;52.386;13.278;2023-04-05T01:33:54;9.07;;;5.43;;
46322;SDS011;32044;52.386;13.278;2023-04-05T01:36:26;10.23;;;6.10;;
46322;SDS011;32044;52.386;13.278;2023-04-05T01:38:58;11.90;;;5.57;;
46322;SDS011;32044;52.386;13.278;2023-04-05T01:41:26;10.40;;;5.80;;
46322;SDS011;32044;52.386;13.278;2023-04-05T01:43:53;8.48;;;5.22;;
46322;SDS011;32044;52.386;13.278;2023-04-05T01:46:22;10.23;;;5.80;;
46322;SDS011;32044;52.386;13.278;2023-04-05T01:48:50;11.68;;;5.72;;
46322;SDS011;32044;52.386;13.278;2023-04-05T01:51:17;11.18;;;6.07;;
46322;SDS011;32044;52.386;13.278;2023-04-05T01:53:46;10.98;;;6.13;;
46322;SDS011;32044;52.386;13.278;2023-04-05T01:56:13;8.93;;;6.00;;
46322;SDS011;32044;52.386;13.278;2023-04-05T01:58:41;10.80;;;6.25;;
46322;SDS011;32044;52.386;13.278;2023-04-05T02:01:08;12.35;;;5.85;;
46322;SDS011;32044;52.386;13.278;2023-04-05T02:03:37;9.82;;;6.00;;
46322;SDS011;32044;52.386;13.278;2023-04-05T02:06:05;10.93;;;6.47;;
46322;SDS011;32044;52.386;13.278;2023-04-05T02:08:33;11.77;;;6.97;;
46322;SDS011;32044;52.386;13.278;2023-04-05T02:11:00;13.88;;;6.45;;
46322;SDS011;32044;52.386;13.278;2023-04-05T02:13:28;11.98;;;5.90;;
46322;SDS011;32044;52.386;13.278;2023-04-05T02:15:56;11.85;;;5.90;;
46322;SDS011;32044;52.386;13.278;2023-04-05T02:18:24;10.63;;;6.07;;
46322;SDS011;32044;52.386;13.278;2023-04-05T02:21:01;8.23;;;5.68;;
46322;SDS011;32044;52.386;13.278;2023-04-05T02:23:29;8.20;;;5.65;;
46322;SDS011;32044;52.386;13.278;2023-04-05T02:25:57;9.02;;;5.13;;
46322;SDS011;32044;52.386;13.278;2023-04-05T02:28:25;10.77;;;5.45;;
46322;SDS011;32044;52.386;13.278;2023-04-05T02:30:53;9.00;;;5.72;;
46322;SDS011;32044;52.386;13.278;2023-04-05T02:33:20;11.98;;;5.88;;
46322;SDS011;32044;52.386;13.278;2023-04-05T02:35:49;8.32;;;5.30;;
46322;SDS011;32044;52.386;13.278;2023-04-05T02:38:18;13.07;;;6.53;;
46322;SDS011;32044;52.386;13.278;2023-04-05T02:40:46;13.00;;;6.28;;
46322;SDS011;32044;52.386;13.278;2023-04-05T02:43:14;10.98;;;5.90;;
46322;SDS011;32044;52.386;13.278;2023-04-05T02:45:42;14.27;;;7.20;;
46322;SDS011;32044;52.386;13.278;2023-04-05T02:48:12;14.00;;;7.10;;
46322;SDS011;32044;52.386;13.278;2023-04-05T02:50:39;17.38;;;8.23;;
46322;SDS011;32044;52.386;13.278;2023-04-05T02:53:08;17.35;;;8.40;;
46322;SDS011;32044;52.386;13.278;2023-04-05T02:55:37;15.52;;;7.65;;
46322;SDS011;32044;52.386;13.278;2023-04-05T02:58:07;13.75;;;7.07;;
46322;SDS011;32044;52.386;13.278;2023-04-05T03:00:35;12.50;;;6.25;;
46322;SDS011;32044;52.386;13.278;2023-04-05T03:03:03;14.63;;;6.63;;
46322;SDS011;32044;52.386;13.278;2023-04-05T03:05:31;12.45;;;6.28;;
46322;SDS011;32044;52.386;13.278;2023-04-05T03:07:59;8.82;;;5.38;;
46322;SDS011;32044;52.386;13.278;2023-04-05T03:10:28;9.30;;;5.53;;
46322;SDS011;32044;52.386;13.278;2023-04-05T03:13:01;13.43;;;6.57;;
46322;SDS011;32044;52.386;13.278;2023-04-05T03:15:30;12.20;;;6.18;;
46322;SDS011;32044;52.386;13.278;2023-04-05T03:17:58;8.65;;;5.28;;
46322;SDS011;32044;52.386;13.278;2023-04-05T03:20:26;9.80;;;5.55;;
46322;SDS011;32044;52.386;13.278;2023-04-05T03:22:53;10.48;;;5.47;;
46322;SDS011;32044;52.386;13.278;2023-04-05T03:25:21;10.20;;;5.65;;
46322;SDS011;32044;52.386;13.278;2023-04-05T03:27:50;9.05;;;5.30;;
46322;SDS011;32044;52.386;13.278;2023-04-05T03:30:20;7.57;;;5.57;;
46322;SDS011;32044;52.386;13.278;2023-04-05T03:32:48;8.70;;;5.22;;
46322;SDS011;32044;52.386;13.278;2023-04-05T03:35:15;9.27;;;5.50;;
46322;SDS011;32044;52.386;13.278;2023-04-05T03:37:44;10.70;;;5.78;;
46322;SDS011;32044;52.386;13.278;2023-04-05T03:40:12;10.00;;;5.93;;
46322;SDS011;32044;52.386;13.278;2023-04-05T03:42:39;11.35;;;6.00;;
46322;SDS011;32044;52.386;13.278;2023-04-05T03:45:07;15.23;;;6.35;;
46322;SDS011;32044;52.386;13.278;2023-04-05T03:47:37;12.15;;;6.75;;
46322;SDS011;32044;52.386;13.278;2023-04-05T03:50:04;10.75;;;6.13;;
46322;SDS011;32044;52.386;13.278;2023-04-05T03:52:33;10.50;;;6.22;;
46322;SDS011;32044;52.386;13.278;2023-04-05T03:55:01;14.20;;;7.00;;
46322;SDS011;32044;52.386;13.278;2023-04-05T03:57:29;14.27;;;6.57;;
46322;SDS011;32044;52.386;13.278;2023-04-05T03:59:56;16.02;;;7.20;;
46322;SDS011;32044;52.386;13.278;2023-04-05T04:02:24;10.35;;;6.22;;
46322;SDS011;32044;52.386;13.278;2023-04-05T04:04:53;14.18;;;6.40;;
46322;SDS011;32044;52.386;13.278;2023-04-05T04:07:20;10.63;;;5.15;;
46322;SDS011;32044;52.386;13.278;2023-04-05T04:09:48;11.80;;;6.07;;
46322;SDS011;32044;52.386;13.278;2023-04-05T04:12:15;13.13;;;5.75;;
46322;SDS011;32044;52.386;13.278;2023-04-05T04:14:43;11.10;;;5.70;;
46322;SDS011;32044;52.386;13.278;2023-04-05T04:17:10;11.95;;;5.38;;
46322;SDS011;32044;52.386;13.278;2023-04-05T04:19:38;10.27;;;5.45;;
46322;SDS011;32044;52.386;13.278;2023-04-05T04:22:07;10.05;;;4.88;;
46322;SDS011;32044;52.386;13.278;2023-04-05T04:24:35;8.63;;;4.93;;
46322;SDS011;32044;52.386;13.278;2023-04-05T04:27:03;8.25;;;4.30;;
46322;SDS011;32044;52.386;13.278;2023-04-05T04:29:34;7.80;;;4.28;;
46322;SDS011;32044;52.386;13.278;2023-04-05T04:32:04;8.38;;;4.43;;
46322;SDS011;32044;52.386;13.278;2023-04-05T04:34:32;8.50;;;4.60;;
46322;SDS011;32044;52.386;13.278;2023-04-05T04:36:59;8.95;;;4.78;;
46322;SDS011;32044;52.386;13.278;2023-04-05T04:39:28;6.65;;;3.97;;
46322;SDS011;32044;52.386;13.278;2023-04-05T04:41:58;7.47;;;4.28;;
46322;SDS011;32044;52.386;13.278;2023-04-05T04:44:26;8.43;;;5.35;;
46322;SDS011;32044;52.386;13.278;2023-04-05T04:46:56;11.82;;;6.35;;
46322;SDS011;32044;52.386;13.278;2023-04-05T04:49:23;10.25;;;5.70;;
46322;SDS011;32044;52.386;13.278;2023-04-05T04:51:53;11.80;;;5.50;;
46322;SDS011;32044;52.386;13.278;2023-04-05T04:54:23;7.57;;;4.82;;
46322;SDS011;32044;52.386;13.278;2023-04-05T04:56:52;6.75;;;4.43;;
46322;SDS011;32044;52.386;13.278;2023-04-05T04:59:19;9.35;;;5.72;;
46322;SDS011;32044;52.386;13.278;2023-04-05T05:01:47;18.42;;;9.98;;
46322;SDS011;32044;52.386;13.278;2023-04-05T05:04:14;21.83;;;12.75;;
46322;SDS011;32044;52.386;13.278;2023-04-05T05:06:42;19.70;;;11.60;;
46322;SDS011;32044;52.386;13.278;2023-04-05T05:09:10;19.05;;;11.32;;
46322;SDS011;32044;52.386;13.278;2023-04-05T05:11:37;20.05;;;10.63;;
46322;SDS011;32044;52.386;13.278;2023-04-05T05:14:06;16.98;;;9.77;;
46322;SDS011;32044;52.386;13.278;2023-04-05T05:16:34;14.02;;;7.55;;
46322;SDS011;32044;52.386;13.278;2023-04-05T05:19:02;11.70;;;6.53;;
46322;SDS011;32044;52.386;13.278;2023-04-05T05:21:29;10.73;;;7.18;;
46322;SDS011;32044;52.386;13.278;2023-04-05T05:23:57;13.52;;;7.90;;
46322;SDS011;32044;52.386;13.278;2023-04-05T05:26:25;15.10;;;8.13;;
46322;SDS011;32044;52.386;13.278;2023-04-05T05:28:52;15.00;;;7.75;;
46322;SDS011;32044;52.386;13.278;2023-04-05T05:31:21;11.20;;;7.63;;
46322;SDS011;32044;52.386;13.278;2023-04-05T05:33:49;12.98;;;7.47;;
46322;SDS011;32044;52.386;13.278;2023-04-05T05:36:17;11.15;;;6.40;;
46322;SDS011;32044;52.386;13.278;2023-04-05T05:38:45;13.85;;;5.25;;
46322;SDS011;32044;52.386;13.278;2023-04-05T05:41:12;10.57;;;5.47;;
46322;SDS011;32044;52.386;13.278;2023-04-05T05:43:40;8.88;;;5.15;;
46322;SDS011;32044;52.386;13.278;2023-04-05T05:46:08;9.05;;;5.32;;
46322;SDS011;32044;52.386;13.278;2023-04-05T05:48:37;9.27;;;4.93;;
46322;SDS011;32044;52.386;13.278;2023-04-05T05:51:04;11.20;;;4.80;;
46322;SDS011;32044;52.386;13.278;2023-04-05T05:53:35;10.68;;;5.20;;
46322;SDS011;32044;52.386;13.278;2023-04-05T05:56:03;11.77;;;5.47;;
46322;SDS011;32044;52.386;13.278;2023-04-05T05:58:31;11.38;;;5.10;;
46322;SDS011;32044;52.386;13.278;2023-04-05T06:00:58;8.48;;;4.53;;
46322;SDS011;32044;52.386;13.278;2023-04-05T06:03:26;8.77;;;4.53;;
46322;SDS011;32044;52.386;13.278;2023-04-05T06:05:57;6.35;;;4.07;;
46322;SDS011;32044;52.386;13.278;2023-04-05T06:08:25;6.13;;;4.28;;
46322;SDS011;32044;52.386;13.278;2023-04-05T06:10:53;7.22;;;4.20;;
46322;SDS011;32044;52.386;13.278;2023-04-05T06:13:21;7.88;;;4.13;;
46322;SDS011;32044;52.386;13.278;2023-04-05T06:15:49;8.02;;;4.13;;
46322;SDS011;32044;52.386;13.278;2023-04-05T06:18:17;7.75;;;4.20;;
46322;SDS011;32044;52.386;13.278;2023-04-05T06:20:45;12.57;;;3.97;;
46322;SDS011;32044;52.386;13.278;2023-04-05T06:23:14;10.85;;;4.72;;
46322;SDS011;32044;52.386;13.278;2023-04-05T06:25:42;13.02;;;5.05;;
46322;SDS011;32044;52.386;13.278;2023-04-05T06:28:09;12.18;;;4.57;;
46322;SDS011;32044;52.386;13.278;2023-04-05T06:30:37;11.48;;;4.95;;
46322;SDS011;32044;52.386;13.278;2023-04-05T06:33:06;12.90;;;4.93;;
46322;SDS011;32044;52.386;13.278;2023-04-05T06:35:34;9.63;;;4.72;;
46322;SDS011;32044;52.386;13.278;2023-04-05T06:38:01;6.90;;;4.05;;
46322;SDS011;32044;52.386;13.278;2023-04-05T06:40:31;9.57;;;4.50;;
46322;SDS011;32044;52.386;13.278;2023-04-05T06:42:59;10.43;;;5.32;;
46322;SDS011;32044;52.386;13.278;2023-04-05T06:45:26;11.40;;;4.72;;
46322;SDS011;32044;52.386;13.278;2023-04-05T06:47:54;9.27;;;4.53;;
46322;SDS011;32044;52.386;13.278;2023-04-05T06:50:21;8.52;;;4.22;;
46322;SDS011;32044;52.386;13.278;2023-04-05T06:52:49;11.25;;;4.15;;
46322;SDS011;32044;52.386;13.278;2023-04-05T06:55:17;8.30;;;4.28;;
46322;SDS011;32044;52.386;13.278;2023-04-05T06:57:46;8.57;;;4.20;;
46322;SDS011;32044;52.386;13.278;2023-04-05T07:00:13;9.82;;;3.90;;
46322;SDS011;32044;52.386;13.278;2023-04-05T07:02:42;10.10;;;4.47;;
46322;SDS011;32044;52.386;13.278;2023-04-05T07:05:10;8.68;;;4.93;;
46322;SDS011;32044;52.386;13.278;2023-04-05T07:07:38;8.55;;;4.80;;
46322;SDS011;32044;52.386;13.278;2023-04-05T07:10:07;12.30;;;4.72;;
46322;SDS011;32044;52.386;13.278;2023-04-05T07:12:35;9.75;;;4.15;;
46322;SDS011;32044;52.386;13.278;2023-04-05T07:15:05;7.85;;;4.10;;
46322;SDS011;32044;52.386;13.278;2023-04-05T07:17:33;8.68;;;3.05;;
46322;SDS011;32044;52.386;13.278;2023-04-05T07:20:01;8.88;;;3.55;;
46322;SDS011;32044;52.386;13.278;2023-04-05T07:22:31;9.15;;;3.30;;
46322;SDS011;32044;52.386;13.278;2023-04-05T07:24:59;4.78;;;2.80;;
46322;SDS011;32044;52.386;13.278;2023-04-05T07:27:27;9.57;;;3.45;;
46322;SDS011;32044;52.386;13.278;2023-04-05T07:29:55;8.38;;;3.50;;
46322;SDS011;32044;52.386;13.278;2023-04-05T07:32:24;10.85;;;3.90;;
46322;SDS011;32044;52.386;13.278;2023-04-05T07:34:52;10.45;;;4.05;;
46322;SDS011;32044;52.386;13.278;2023-04-05T07:37:19;9.38;;;3.92;;
46322;SDS011;32044;52.386;13.278;2023-04-05T07:39:47;5.78;;;2.90;;
46322;SDS011;32044;52.386;13.278;2023-04-05T07:42:15;12.23;;;4.07;;
46322;SDS011;32044;52.386;13.278;2023-04-05T07:44:46;8.95;;;3.90;;
46322;SDS011;32044;52.386;13.278;2023-04-05T07:47:14;11.45;;;4.38;;
46322;SDS011;32044;52.386;13.278;2023-04-05T07:49:43;10.60;;;4.72;;
46322;SDS011;32044;52.386;13.278;2023-04-05T07:52:11;10.38;;;3.55;;
46322;SDS011;32044;52.386;13.278;2023-04-05T07:54:38;9.77;;;3.95;;
46322;SDS011;32044;52.386;13.278;2023-04-05T07:57:08;10.85;;;4.68;;
46322;SDS011;32044;52.386;13.278;2023-04-05T07:59:35;7.20;;;4.43;;
46322;SDS011;32044;52.386;13.278;2023-04-05T08:02:03;7.20;;;4.70;;
46322;SDS011;32044;52.386;13.278;2023-04-05T08:04:40;7.93;;;4.43;;
46322;SDS011;32044;52.386;13.278;2023-04-05T08:07:09;9.00;;;4.72;;
46322;SDS011;32044;52.386;13.278;2023-04-05T08:09:37;12.15;;;5.40;;
46322;SDS011;32044;52.386;13.278;2023-04-05T08:12:04;11.02;;;5.05;;
46322;SDS011;32044;52.386;13.278;2023-04-05T08:14:32;9.52;;;4.25;;
46322;SDS011;32044;52.386;13.278;2023-04-05T08:17:00;12.15;;;4.95;;
46322;SDS011;32044;52.386;13.278;2023-04-05T08:19:28;10.32;;;5.25;;
46322;SDS011;32044;52.386;13.278;2023-04-05T08:21:55;9.45;;;4.80;;
46322;SDS011;32044;52.386;13.278;2023-04-05T08:24:24;8.50;;;5.30;;
46322;SDS011;32044;52.386;13.278;2023-04-05T08:26:52;12.32;;;5.47;;
46322;SDS011;32044;52.386;13.278;2023-04-05T08:29:19;14.88;;;5.97;;
46322;SDS011;32044;52.386;13.278;2023-04-05T08:31:47;10.40;;;4.95;;
46322;SDS011;32044;52.386;13.278;2023-04-05T08:34:14;9.77;;;4.82;;
46322;SDS011;32044;52.386;13.278;2023-04-05T08:36:42;8.48;;;4.93;;
46322;SDS011;32044;52.386;13.278;2023-04-05T08:39:10;9.68;;;5.32;;
46322;SDS011;32044;52.386;13.278;2023-04-05T08:41:45;11.18;;;5.10;;
46322;SDS011;32044;52.386;13.278;2023-04-05T08:44:16;10.68;;;5.75;;
46322;SDS011;32044;52.386;13.278;2023-04-05T08:46:45;8.50;;;4.53;;
46322;SDS011;32044;52.386;13.278;2023-04-05T08:49:13;12.60;;;5.63;;
46322;SDS011;32044;52.386;13.278;2023-04-05T08:51:41;10.30;;;5.28;;
46322;SDS011;32044;52.386;13.278;2023-04-05T08:54:08;8.45;;;5.13;;
46322;SDS011;32044;52.386;13.278;2023-04-05T08:56:36;13.27;;;5.70;;
46322;SDS011;32044;52.386;13.278;2023-04-05T08:59:06;13.45;;;4.93;;
46322;SDS011;32044;52.386;13.278;2023-04-05T09:01:36;12.57;;;4.90;;
46322;SDS011;32044;52.386;13.278;2023-04-05T09:04:05;10.30;;;4.75;;
46322;SDS011;32044;52.386;13.278;2023-04-05T09:06:34;10.93;;;4.72;;
46322;SDS011;32044;52.386;13.278;2023-04-05T09:09:04;11.80;;;5.53;;
46322;SDS011;32044;52.386;13.278;2023-04-05T09:11:32;10.38;;;4.95;;
46322;SDS011;32044;52.386;13.278;2023-04-05T09:14:01;9.55;;;4.45;;
46322;SDS011;32044;52.386;13.278;2023-04-05T09:16:30;12.07;;;5.97;;
46322;SDS011;32044;52.386;13.278;2023-04-05T09:18:58;15.48;;;5.32;;
46322;SDS011;32044;52.386;13.278;2023-04-05T09:21:26;7.47;;;5.00;;
46322;SDS011;32044;52.386;13.278;2023-04-05T09:23:54;8.88;;;4.60;;
46322;SDS011;32044;52.386;13.278;2023-04-05T09:26:22;8.00;;;5.13;;
46322;SDS011;32044;52.386;13.278;2023-04-05T09:28:50;11.63;;;5.97;;
46322;SDS011;32044;52.386;13.278;2023-04-05T09:31:28;9.07;;;5.25;;
46322;SDS011;32044;52.386;13.278;2023-04-05T09:33:57;10.35;;;4.93;;
46322;SDS011;32044;52.386;13.278;2023-04-05T09:36:26;10.05;;;5.43;;
46322;SDS011;32044;52.386;13.278;2023-04-05T09:39:02;10.07;;;6.45;;
46322;SDS011;32044;52.386;13.278;2023-04-05T09:41:32;8.88;;;5.00;;
46322;SDS011;32044;52.386;13.278;2023-04-05T09:44:00;9.25;;;5.05;;
46322;SDS011;32044;52.386;13.278;2023-04-05T09:46:29;7.15;;;5.00;;
46322;SDS011;32044;52.386;13.278;2023-04-05T09:48:59;8.13;;;5.13;;
46322;SDS011;32044;52.386;13.278;2023-04-05T09:51:31;9.20;;;4.80;;
46322;SDS011;32044;52.386;13.278;2023-04-05T09:54:00;8.93;;;4.88;;
46322;SDS011;32044;52.386;13.278;2023-04-05T09:56:29;8.93;;;4.65;;
46322;SDS011;32044;52.386;13.278;2023-04-05T09:58:58;8.68;;;5.57;;
46322;SDS011;32044;52.386;13.278;2023-04-05T10:01:28;6.30;;;4.47;;
46322;SDS011;32044;52.386;13.278;2023-04-05T10:03:58;12.10;;;4.78;;
46322;SDS011;32044;52.386;13.278;2023-04-05T10:06:33;9.65;;;4.88;;
46322;SDS011;32044;52.386;13.278;2023-04-05T10:09:02;7.65;;;4.65;;
46322;SDS011;32044;52.386;13.278;2023-04-05T10:11:30;11.27;;;5.25;;
46322;SDS011;32044;52.386;13.278;2023-04-05T10:13:59;10.68;;;5.00;;
46322;SDS011;32044;52.386;13.278;2023-04-05T10:16:29;7.40;;;4.22;;
46322;SDS011;32044;52.386;13.278;2023-04-05T10:19:01;7.43;;;4.40;;
46322;SDS011;32044;52.386;13.278;2023-04-05T10:21:32;10.32;;;4.72;;
46322;SDS011;32044;52.386;13.278;2023-04-05T10:24:04;7.90;;;4.07;;
46322;SDS011;32044;52.386;13.278;2023-04-05T10:26:39;7.28;;;4.13;;
46322;SDS011;32044;52.386;13.278;2023-04-05T10:29:11;7.47;;;4.60;;
46322;SDS011;32044;52.386;13.278;2023-04-05T10:31:43;5.38;;;3.88;;
46322;SDS011;32044;52.386;13.278;2023-04-05T10:34:23;6.32;;;3.50;;
46322;SDS011;32044;52.386;13.278;2023-04-05T10:36:57;10.38;;;4.88;;
46322;SDS011;32044;52.386;13.278;2023-04-05T10:39:27;9.13;;;4.25;;
46322;SDS011;32044;52.386;13.278;2023-04-05T10:41:58;6.93;;;3.85;;
46322;SDS011;32044;52.386;13.278;2023-04-05T10:44:28;8.40;;;3.58;;
46322;SDS011;32044;52.386;13.278;2023-04-05T10:46:56;7.70;;;3.83;;
46322;SDS011;32044;52.386;13.278;2023-04-05T10:49:31;8.85;;;4.40;;
46322;SDS011;32044;52.386;13.278;2023-04-05T10:52:02;7.57;;;4.05;;
46322;SDS011;32044;52.386;13.278;2023-04-05T10:54:31;10.27;;;4.45;;
46322;SDS011;32044;52.386;13.278;2023-04-05T10:56:59;6.68;;;3.92;;
46322;SDS011;32044;52.386;13.278;2023-04-05T10:59:33;8.00;;;4.60;;
46322;SDS011;32044;52.386;13.278;2023-04-05T11:02:02;8.57;;;4.03;;
46322;SDS011;32044;52.386;13.278;2023-04-05T11:04:33;7.80;;;4.38;;
46322;SDS011;32044;52.386;13.278;2023-04-05T11:07:09;7.55;;;4.20;;
46322;SDS011;32044;52.386;13.278;2023-04-05T11:09:37;8.20;;;3.88;;
46322;SDS011;32044;52.386;13.278;2023-04-05T11:12:06;5.72;;;3.63;;
46322;SDS011;32044;52.386;13.278;2023-04-05T11:14:34;8.70;;;4.50;;
46322;SDS011;32044;52.386;13.278;2023-04-05T11:17:02;9.95;;;4.60;;
46322;SDS011;32044;52.386;13.278;2023-04-05T11:19:50;7.97;;;4.25;;
46322;SDS011;32044;52.386;13.278;2023-04-05T11:22:24;8.05;;;4.20;;
46322;SDS011;32044;52.386;13.278;2023-04-05T11:24:53;10.20;;;4.35;;
46322;SDS011;32044;52.386;13.278;2023-04-05T11:27:26;10.55;;;3.92;;
46322;SDS011;32044;52.386;13.278;2023-04-05T11:29:55;8.27;;;4.63;;
46322;SDS011;32044;52.386;13.278;2023-04-05T11:32:23;7.72;;;4.15;;
46322;SDS011;32044;52.386;13.278;2023-04-05T11:35:06;7.47;;;4.40;;
46322;SDS011;32044;52.386;13.278;2023-04-05T11:37:51;9.02;;;4.07;;
46322;SDS011;32044;52.386;13.278;2023-04-05T11:40:23;7.15;;;3.50;;
46322;SDS011;32044;52.386;13.278;2023-04-05T11:42:58;8.75;;;4.35;;
46322;SDS011;32044;52.386;13.278;2023-04-05T11:45:28;10.57;;;4.20;;
46322;SDS011;32044;52.386;13.278;2023-04-05T11:47:58;7.05;;;3.63;;
46322;SDS011;32044;52.386;13.278;2023-04-05T11:50:28;6.80;;;3.95;;
46322;SDS011;32044;52.386;13.278;2023-04-05T11:53:09;9.90;;;4.22;;
46322;SDS011;32044;52.386;13.278;2023-04-05T11:55:37;9.85;;;4.20;;
46322;SDS011;32044;52.386;13.278;2023-04-05T11:58:12;6.93;;;4.65;;
46322;SDS011;32044;52.386;13.278;2023-04-05T12:00:40;8.15;;;4.10;;
46322;SDS011;32044;52.386;13.278;2023-04-05T12:03:11;11.93;;;3.92;;
46322;SDS011;32044;52.386;13.278;2023-04-05T12:05:50;10.60;;;4.20;;
46322;SDS011;32044;52.386;13.278;2023-04-05T12:08:19;5.82;;;4.03;;
46322;SDS011;32044;52.386;13.278;2023-04-05T12:10:53;5.85;;;4.20;;
46322;SDS011;32044;52.386;13.278;2023-04-05T12:13:25;9.38;;;4.28;;
46322;SDS011;32044;52.386;13.278;2023-04-05T12:15:56;6.95;;;3.17;;
46322;SDS011;32044;52.386;13.278;2023-04-05T12:18:27;6.97;;;2.72;;
46322;SDS011;32044;52.386;13.278;2023-04-05T12:21:01;6.50;;;3.25;;
46322;SDS011;32044;52.386;13.278;2023-04-05T12:23:33;9.40;;;3.45;;
46322;SDS011;32044;52.386;13.278;2023-04-05T12:26:01;9.48;;;4.15;;
46322;SDS011;32044;52.386;13.278;2023-04-05T12:31:34;5.32;;;3.35;;
46322;SDS011;32044;52.386;13.278;2023-04-05T12:34:02;9.43;;;3.63;;
46322;SDS011;32044;52.386;13.278;2023-04-05T12:36:30;5.15;;;3.70;;
46322;SDS011;32044;52.386;13.278;2023-04-05T12:38:58;7.53;;;3.28;;
46322;SDS011;32044;52.386;13.278;2023-04-05T12:41:26;6.70;;;3.03;;
46322;SDS011;32044;52.386;13.278;2023-04-05T12:43:55;5.32;;;3.10;;
46322;SDS011;32044;52.386;13.278;2023-04-05T12:46:37;5.95;;;3.15;;
46322;SDS011;32044;52.386;13.278;2023-04-05T12:49:06;6.32;;;3.40;;
46322;SDS011;32044;52.386;13.278;2023-04-05T12:51:41;6.63;;;3.53;;
46322;SDS011;32044;52.386;13.278;2023-04-05T12:54:10;6.65;;;3.20;;
46322;SDS011;32044;52.386;13.278;2023-04-05T12:56:38;4.15;;;2.85;;
46322;SDS011;32044;52.386;13.278;2023-04-05T12:59:06;6.00;;;3.00;;
46322;SDS011;32044;52.386;13.278;2023-04-05T13:01:34;6.15;;;3.13;;
46322;SDS011;32044;52.386;13.278;2023-04-05T13:04:02;6.18;;;3.33;;
46322;SDS011;32044;52.386;13.278;2023-04-05T13:06:43;4.82;;;2.72;;
46322;SDS011;32044;52.386;13.278;2023-04-05T13:09:12;15.48;;;5.63;;
46322;SDS011;32044;52.386;13.278;2023-04-05T13:11:40;13.05;;;4.30;;
46322;SDS011;32044;52.386;13.278;2023-04-05T13:14:07;6.70;;;3.90;;
46322;SDS011;32044;52.386;13.278;2023-04-05T13:16:35;6.88;;;3.55;;
46322;SDS011;32044;52.386;13.278;2023-04-05T13:19:02;5.85;;;4.47;;
46322;SDS011;32044;52.386;13.278;2023-04-05T13:21:30;9.68;;;4.68;;
46322;SDS011;32044;52.386;13.278;2023-04-05T13:24:00;9.15;;;4.50;;
46322;SDS011;32044;52.386;13.278;2023-04-05T13:26:27;11.40;;;4.68;;
46322;SDS011;32044;52.386;13.278;2023-04-05T13:28:55;8.00;;;4.43;;
46322;SDS011;32044;52.386;13.278;2023-04-05T13:31:22;8.25;;;4.38;;
46322;SDS011;32044;52.386;13.278;2023-04-05T13:33:50;9.15;;;4.75;;
46322;SDS011;32044;52.386;13.278;2023-04-05T13:36:18;8.93;;;4.43;;
46322;SDS011;32044;52.386;13.278;2023-04-05T13:38:45;10.13;;;4.80;;
46322;SDS011;32044;52.386;13.278;2023-04-05T13:41:14;11.93;;;4.57;;
46322;SDS011;32044;52.386;13.278;2023-04-05T13:43:42;7.05;;;4.38;;
46322;SDS011;32044;52.386;13.278;2023-04-05T13:46:09;12.55;;;4.70;;
46322;SDS011;32044;52.386;13.278;2023-04-05T13:48:37;6.88;;;3.85;;
46322;SDS011;32044;52.386;13.278;2023-04-05T13:51:04;7.10;;;3.70;;
46322;SDS011;32044;52.386;13.278;2023-04-05T13:53:32;10.90;;;4.70;;
46322;SDS011;32044;52.386;13.278;2023-04-05T13:56:00;7.40;;;4.30;;
46322;SDS011;32044;52.386;13.278;2023-04-05T13:58:29;8.20;;;4.28;;
46322;SDS011;32044;52.386;13.278;2023-04-05T14:00:56;10.68;;;4.20;;
46322;SDS011;32044;52.386;13.278;2023-04-05T14:03:24;8.10;;;4.35;;
46322;SDS011;32044;52.386;13.278;2023-04-05T14:05:52;7.50;;;4.00;;
46322;SDS011;32044;52.386;13.278;2023-04-05T14:08:20;7.38;;;3.80;;
46322;SDS011;32044;52.386;13.278;2023-04-05T14:10:48;7.95;;;4.22;;
46322;SDS011;32044;52.386;13.278;2023-04-05T14:13:16;7.13;;;4.40;;
46322;SDS011;32044;52.386;13.278;2023-04-05T14:15:45;6.35;;;3.92;;
46322;SDS011;32044;52.386;13.278;2023-04-05T14:18:12;6.40;;;3.70;;
46322;SDS011;32044;52.386;13.278;2023-04-05T14:20:40;9.32;;;3.88;;
46322;SDS011;32044;52.386;13.278;2023-04-05T14:23:08;9.43;;;4.45;;
46322;SDS011;32044;52.386;13.278;2023-04-05T14:25:36;7.80;;;3.97;;
46322;SDS011;32044;52.386;13.278;2023-04-05T14:28:03;6.40;;;3.35;;
46322;SDS011;32044;52.386;13.278;2023-04-05T14:30:31;6.57;;;3.38;;
46322;SDS011;32044;52.386;13.278;2023-04-05T14:33:00;7.00;;;3.72;;
46322;SDS011;32044;52.386;13.278;2023-04-05T14:35:28;7.38;;;3.33;;
46322;SDS011;32044;52.386;13.278;2023-04-05T14:37:56;11.35;;;3.85;;
46322;SDS011;32044;52.386;13.278;2023-04-05T14:40:23;7.13;;;3.80;;
46322;SDS011;32044;52.386;13.278;2023-04-05T14:42:51;6.00;;;3.65;;